Detalii statie SOPEMA [00001CFB]

Toti senzorii

Date Temperatura solului [C]Precipitatii [mm]Voltaj baterie [mV]Leaf Wetness [Min]HC Air temperature [C]HC Relative humidity [%]Punctul de roua [C]
medieminmaxsumaultimatimpmedieminmaxmediemediemin
2018-06-20 10:00:00 0 7206 30.24 29.44 30.93 42.85 15.9 14.5
2018-06-20 11:00:00 0 7236 31.33 30.94 32.14 37.74 15 14.4
2018-06-20 12:00:00 0 7264 32.15 31.5 33.23 35.06 14.6 13.7
2018-06-20 13:00:00 0 7254 32.98 32.35 33.39 31.61 13.5 12.9
2018-06-20 14:00:00 0 7236 33.56 32.85 34.32 30.34 13.4 12.8
2018-06-20 15:00:00 0 7186 33.72 33.12 34.52 29.78 13.2 12.7
2018-06-20 16:00:00 0 7098 33.75 33.12 34.27 28.9 12.8 12.1
2018-06-20 17:00:00 0 7030 33.4 33.09 33.75 29.14 12.7 12.1
2018-06-20 18:00:00 0 6982 32.78 32.47 33.17 30.47 12.8 12.2
2018-06-20 19:00:00 0 6932 31.76 31.16 32.5 34.9 14 13.2
2018-06-20 20:00:00 0 6884 29.1 27.85 31.05 50.34 17.3 14.2
2018-06-20 21:00:00 0 6884 27.06 26.53 27.63 61.6 18.8 18.6
2018-06-20 22:00:00 0 6894 24.52 22.15 26.51 72.66 19 18.5
2018-06-20 23:00:00 0 6884 22.36 21.54 23.06 81.08 18.8 17.1
2018-06-21 00:00:00 0 6884 22.03 21.41 22.64 70.04 16.1 15.2
2018-06-21 01:00:00 0 6884 21.08 20.86 21.32 85.75 18.4 16.3
2018-06-21 02:00:00 0 6884 21.85 21.22 22.08 92.99 20.5 20.3
2018-06-21 03:00:00 0 6874 22.27 21.86 22.54 88.16 20 19.7
2018-06-21 04:00:00 0 6854 22.59 22.33 22.81 88.53 20.4 20.4
2018-06-21 05:00:00 0 6844 22.08 21.81 22.34 91.9 20.5 20.4
2018-06-21 06:00:00 0 6854 21.58 21.4 21.77 97.83 21.1 20.6
2018-06-21 07:00:00 0 6884 22.76 21.81 23.8 90.83 21 20.4
2018-06-21 08:00:00 0 7020 26.2 24.1 27.74 66.04 19 17.8
2018-06-21 09:00:00 0 7128 28.01 27.42 28.84 54.16 17.7 17.1
2018-06-21 10:00:00 0 7196 28.23 27.43 29.05 52.23 17.3 16.8
2018-06-21 11:00:00 0 7254 29.87 29.07 31.01 46.97 17.1 16.8
2018-06-21 12:00:00 0 7254 31.23 30.71 32.7 43.2 17 16.7
2018-06-21 13:00:00 0 7236 32.72 32.03 33.64 41.06 17.4 17.2
2018-06-21 14:00:00 0 7236 33.01 31.74 34.35 40.35 17.4 16.8
2018-06-21 15:00:00 0 7148 32.55 31.31 33.82 39.67 16.8 16.2
2018-06-21 16:00:00 0 7020 28.27 25.77 31.24 54.16 17.6 16.4
2018-06-21 17:00:00 0 6932 24.44 23.52 25.97 74.26 19.3 18.8
2018-06-21 18:00:00 0 6932 24.75 24.18 25.32 70.71 18.9 18.5
2018-06-21 19:00:00 0 6922 25.6 25.22 26.08 69.5 19.4 19.1
2018-06-21 20:00:00 0 6874 24.19 22.62 25.27 78.91 20 19.2
2018-06-21 21:00:00 0 6884 21.39 21.06 22.41 99.2 21.1 20.8
2018-06-21 22:00:00 0 6884 21.31 21.05 21.7 98.96 21 20.8
2018-06-21 23:00:00 0 6884 20.34 19.96 21.24 98.97 20 19.9
2018-06-22 00:00:00 0 6884 19.81 19.6 19.99 100 19.7 19.6
2018-06-22 01:00:00 0 6874 19.53 18.67 20.13 100 19.4 18.6
2018-06-22 02:00:00 0 6854 18.56 18.1 18.93 100 18.5 18.1
2018-06-22 03:00:00 0 6844 18.52 18.2 18.81 100 18.4 18.2
2018-06-22 04:00:00 0 6844 18 17.51 18.28 100 17.9 17.5
2018-06-22 05:00:00 0 6834 18.18 17.54 18.59 100 18.1 17.5
2018-06-22 06:00:00 0 6844 18.78 18.27 19.92 100 18.7 18.2
2018-06-22 07:00:00 0 6922 21.73 20.09 24.3 98.42 21.4 20
2018-06-22 08:00:00 0 7000 24.93 24.06 26.2 78.28 20.7 20.4
2018-06-22 09:00:00 0 7128 28.09 26.04 29.68 63.99 20.4 19.2